createdAt,value
2023-01-22T00:00:04.914Z,95404.38
2023-01-22T00:02:39.418Z,95399.56
2023-01-22T00:05:06.781Z,95395.38
2023-01-22T00:07:33.372Z,95394.44
2023-01-22T00:10:00.172Z,95394.75
2023-01-22T00:12:27.623Z,95394.69
2023-01-22T00:14:54.300Z,95390.16
2023-01-22T00:17:21.032Z,95391.09
2023-01-22T00:19:47.665Z,95389.81
2023-01-22T00:22:14.309Z,95397.69
2023-01-22T00:24:40.960Z,95394.16
2023-01-22T00:27:07.549Z,95383.06
2023-01-22T00:29:34.833Z,95390.84
2023-01-22T00:32:01.494Z,95390.63
2023-01-22T00:34:28.402Z,95395.81
2023-01-22T00:36:57.412Z,95387.25
2023-01-22T00:39:24.123Z,95388.41
2023-01-22T00:41:51.964Z,95387.50
2023-01-22T00:44:19.258Z,95385.94
2023-01-22T00:46:46.537Z,95386.88
2023-01-22T00:49:13.173Z,95382.53
2023-01-22T00:51:39.941Z,95391.88
2023-01-22T00:54:08.553Z,95383.59
2023-01-22T00:56:35.125Z,95387.44
2023-01-22T00:59:01.766Z,95386.88
2023-01-22T01:01:28.412Z,95382.25
2023-01-22T01:03:57.170Z,95383.06
2023-01-22T01:06:23.815Z,95382.75
2023-01-22T01:08:50.670Z,95377.91
2023-01-22T01:11:22.280Z,95379.31
2023-01-22T01:13:50.515Z,95379.25
2023-01-22T01:16:23.967Z,95380.19
2023-01-22T01:18:50.655Z,95382.06
2023-01-22T01:21:19.217Z,95382.31
2023-01-22T01:23:46.323Z,95384.03
2023-01-22T01:26:15.683Z,95387.28
2023-01-22T01:28:43.294Z,95386.50
2023-01-22T01:31:13.318Z,95393.00
2023-01-22T01:33:40.814Z,95391.94
2023-01-22T01:36:21.235Z,95386.72
2023-01-22T01:38:54.835Z,95388.16
2023-01-22T01:41:24.174Z,95382.16
2023-01-22T01:44:14.032Z,95390.69
2023-01-22T01:46:46.718Z,95385.66
2023-01-22T01:49:25.855Z,95389.03
2023-01-22T01:51:56.500Z,95385.56
2023-01-22T01:54:23.507Z,95386.72
2023-01-22T01:56:55.927Z,95386.78
2023-01-22T01:59:22.904Z,95394.69
2023-01-22T02:01:54.103Z,95392.09
2023-01-22T02:04:22.033Z,95389.56
2023-01-22T02:06:48.625Z,95393.97
2023-01-22T02:09:15.382Z,95397.25
2023-01-22T02:11:42.684Z,95392.09
2023-01-22T02:14:20.261Z,95389.41
2023-01-22T02:16:46.860Z,95389.81
2023-01-22T02:19:13.464Z,95384.03
2023-01-22T02:21:41.445Z,95379.00
2023-01-22T02:24:13.740Z,95383.44
2023-01-22T02:26:42.385Z,95376.78
2023-01-22T02:29:11.912Z,95379.47
2023-01-22T02:31:40.260Z,95384.56
2023-01-22T02:34:08.703Z,95381.16
2023-01-22T02:36:37.784Z,95380.47
2023-01-22T02:39:05.012Z,95377.88
2023-01-22T02:41:32.309Z,95377.81
2023-01-22T02:43:59.741Z,95373.56
2023-01-22T02:46:26.568Z,95371.94
2023-01-22T02:48:53.538Z,95377.94
2023-01-22T02:51:20.466Z,95374.47
2023-01-22T02:53:49.163Z,95370.22
2023-01-22T02:56:16.251Z,95371.19
2023-01-22T02:58:42.877Z,95375.34
2023-01-22T03:01:18.765Z,95378.19
2023-01-22T03:03:48.426Z,95381.97
2023-01-22T03:06:15.928Z,95377.19
2023-01-22T03:08:43.579Z,95380.47
2023-01-22T03:11:13.063Z,95365.63
2023-01-22T03:13:58.328Z,95368.97
2023-01-22T03:16:43.697Z,95372.50
2023-01-22T03:19:31.302Z,95374.19
2023-01-22T03:21:57.897Z,95375.66
2023-01-22T03:24:25.800Z,95380.06
2023-01-22T03:26:52.658Z,95378.38
2023-01-22T03:29:19.354Z,95374.38
2023-01-22T03:31:48.476Z,95381.00
2023-01-22T03:34:20.256Z,95382.16
2023-01-22T03:36:47.325Z,95387.28
2023-01-22T03:39:14.440Z,95382.28
2023-01-22T03:41:42.089Z,95388.16
2023-01-22T03:44:11.619Z,95391.91
2023-01-22T03:46:40.228Z,95389.31
2023-01-22T03:49:08.645Z,95393.69
2023-01-22T03:51:36.490Z,95394.44
2023-01-22T03:54:03.876Z,95391.19
2023-01-22T03:56:31.376Z,95387.72
2023-01-22T03:59:03.936Z,95394.47
2023-01-22T04:01:30.806Z,95402.75
2023-01-22T04:03:57.461Z,95395.81
2023-01-22T04:06:26.734Z,95401.88
2023-01-22T04:08:55.288Z,95400.59
2023-01-22T04:11:27.571Z,95408.31
2023-01-22T04:13:55.711Z,95405.19
2023-01-22T04:16:22.974Z,95406.16
2023-01-22T04:19:06.752Z,95407.19
2023-01-22T04:21:56.498Z,95413.25
2023-01-22T04:24:23.125Z,95410.75
2023-01-22T04:26:49.745Z,95414.94
2023-01-22T04:29:19.366Z,95417.41
2023-01-22T04:31:46.207Z,95413.59
2023-01-22T04:34:18.821Z,95419.06
2023-01-22T04:36:50.867Z,95417.81
2023-01-22T04:39:17.786Z,95412.13
2023-01-22T04:41:44.410Z,95423.91
2023-01-22T04:44:11.301Z,95423.91
2023-01-22T04:46:40.062Z,95425.28
2023-01-22T04:49:06.997Z,95423.50
2023-01-22T04:51:33.668Z,95419.84
2023-01-22T04:54:00.329Z,95432.66
2023-01-22T04:56:27.448Z,95431.47
2023-01-22T04:58:54.338Z,95427.50
2023-01-22T05:01:21.404Z,95430.66
2023-01-22T05:03:48.081Z,95425.16
2023-01-22T05:06:14.748Z,95431.44
2023-01-22T05:08:41.347Z,95434.78
2023-01-22T05:11:09.643Z,95439.81
2023-01-22T05:13:50.328Z,95444.00
2023-01-22T05:16:20.280Z,95435.47
2023-01-22T05:18:47.335Z,95439.13
2023-01-22T05:21:14.392Z,95441.66
2023-01-22T05:23:41.173Z,95444.50
2023-01-22T05:26:07.767Z,95445.72
2023-01-22T05:28:41.671Z,95452.22
2023-01-22T05:31:19.390Z,95450.91
2023-01-22T05:34:07.748Z,95457.63
2023-01-22T05:36:34.432Z,95451.97
2023-01-22T05:39:06.798Z,95458.25
2023-01-22T05:41:34.279Z,95455.78
2023-01-22T05:44:05.496Z,95447.00
2023-01-22T05:46:32.826Z,95456.56
2023-01-22T05:49:25.451Z,95460.28
2023-01-22T05:51:55.461Z,95463.69
2023-01-22T05:54:22.264Z,95462.84
2023-01-22T05:56:49.841Z,95463.47
2023-01-22T05:59:17.970Z,95463.97
2023-01-22T06:01:52.115Z,95471.06
2023-01-22T06:04:19.289Z,95475.59
2023-01-22T06:06:45.927Z,95477.56
2023-01-22T06:09:13.959Z,95474.56
2023-01-22T06:11:41.742Z,95474.81
2023-01-22T06:14:08.445Z,95486.66
2023-01-22T06:16:35.188Z,95484.06
2023-01-22T06:19:15.565Z,95487.56
2023-01-22T06:21:47.228Z,95484.31
2023-01-22T06:24:13.861Z,95489.50
2023-01-22T06:26:40.906Z,95493.69
2023-01-22T06:29:10.503Z,95491.28
2023-01-22T06:31:37.987Z,95482.22
2023-01-22T06:34:08.448Z,95484.75
2023-01-22T06:36:35.132Z,95491.59
2023-01-22T06:39:02.772Z,95487.44
2023-01-22T06:41:38.271Z,95494.91
2023-01-22T06:44:07.335Z,95494.81
2023-01-22T06:46:34.023Z,95499.75
2023-01-22T06:49:04.915Z,95508.03
2023-01-22T06:51:31.902Z,95501.97
2023-01-22T06:53:59.213Z,95511.91
2023-01-22T06:56:27.181Z,95504.09
2023-01-22T06:58:55.698Z,95508.75
2023-01-22T07:01:22.508Z,95510.16
2023-01-22T07:03:50.748Z,95511.50
2023-01-22T07:06:18.825Z,95511.97
2023-01-22T07:08:45.999Z,95517.00
2023-01-22T07:11:14.405Z,95519.41
2023-01-22T07:13:41.795Z,95518.28
2023-01-22T07:16:08.752Z,95524.88
2023-01-22T07:18:35.585Z,95528.88
2023-01-22T07:21:03.539Z,95525.59
2023-01-22T07:23:30.663Z,95525.59
2023-01-22T07:25:57.815Z,95527.22
2023-01-22T07:28:24.502Z,95527.19
2023-01-22T07:30:51.122Z,95529.44
2023-01-22T07:33:17.749Z,95532.31
2023-01-22T07:35:44.427Z,95528.97
2023-01-22T07:38:11.002Z,95530.22
2023-01-22T07:40:37.672Z,95528.81
2023-01-22T07:43:07.543Z,95533.34
2023-01-22T07:45:35.098Z,95531.25
2023-01-22T07:48:02.551Z,95534.53
2023-01-22T07:50:31.365Z,95532.72
2023-01-22T07:53:00.553Z,95534.91
2023-01-22T07:55:27.395Z,95541.69
2023-01-22T07:58:03.571Z,95545.78
2023-01-22T08:00:30.965Z,95540.06
2023-01-22T08:02:57.588Z,95545.97
2023-01-22T08:05:24.249Z,95548.63
2023-01-22T08:07:50.926Z,95540.38
2023-01-22T08:10:18.108Z,95548.34
2023-01-22T08:12:46.559Z,95553.16
2023-01-22T08:15:14.708Z,95555.84
2023-01-22T08:17:41.987Z,95558.25
2023-01-22T08:20:10.061Z,95553.22
2023-01-22T08:22:36.735Z,95568.56
2023-01-22T08:25:03.402Z,95554.91
2023-01-22T08:27:30.061Z,95553.06
2023-01-22T08:29:56.635Z,95553.63
2023-01-22T08:32:23.324Z,95564.81
2023-01-22T08:34:54.117Z,95560.94
2023-01-22T08:37:24.731Z,95564.78
2023-01-22T08:39:51.378Z,95566.69
2023-01-22T08:42:18.041Z,95575.66
2023-01-22T08:44:44.629Z,95578.19
2023-01-22T08:47:11.619Z,95579.41
2023-01-22T08:49:38.483Z,95576.50
2023-01-22T08:52:05.704Z,95580.56
2023-01-22T08:54:32.415Z,95576.19
2023-01-22T08:56:58.983Z,95581.31
2023-01-22T08:59:25.742Z,95578.84
2023-01-22T09:01:52.573Z,95577.78
2023-01-22T09:04:19.929Z,95572.31
2023-01-22T09:06:46.851Z,95577.78
2023-01-22T09:09:13.722Z,95583.66
2023-01-22T09:11:40.839Z,95582.56
2023-01-22T09:14:10.687Z,95590.06
2023-01-22T09:16:37.401Z,95590.81
2023-01-22T09:19:05.533Z,95592.53
2023-01-22T09:21:33.825Z,95595.47
2023-01-22T09:24:00.792Z,95593.53
2023-01-22T09:26:27.509Z,95597.66
2023-01-22T09:28:54.128Z,95608.41
2023-01-22T09:31:20.812Z,95613.66
2023-01-22T09:33:47.459Z,95612.22
2023-01-22T09:36:15.927Z,95613.56
2023-01-22T09:38:43.565Z,95613.72
2023-01-22T09:41:25.503Z,95626.25
2023-01-22T09:44:08.732Z,95627.91
2023-01-22T09:46:43.807Z,95627.28
2023-01-22T09:49:24.238Z,95622.06
2023-01-22T09:51:59.971Z,95620.44
2023-01-22T09:54:28.515Z,95620.69
2023-01-22T09:56:58.342Z,95621.91
2023-01-22T09:59:32.307Z,95622.03
2023-01-22T10:02:14.590Z,95626.06
2023-01-22T10:04:44.768Z,95631.31
2023-01-22T10:07:19.031Z,95635.03
2023-01-22T10:09:53.360Z,95628.72
2023-01-22T10:12:20.000Z,95636.75
2023-01-22T10:14:46.615Z,95636.00
2023-01-22T10:17:21.621Z,95627.72
2023-01-22T10:19:53.879Z,95630.44
2023-01-22T10:22:23.714Z,95631.59
2023-01-22T10:24:51.879Z,95638.44
2023-01-22T10:27:42.177Z,95639.03
2023-01-22T10:30:21.583Z,95642.69
2023-01-22T10:33:04.867Z,95641.38
2023-01-22T10:35:32.658Z,95641.00
2023-01-22T10:37:59.960Z,95636.94
2023-01-22T10:40:32.848Z,95645.97
2023-01-22T10:43:01.868Z,95636.88
2023-01-22T10:45:28.636Z,95635.16
2023-01-22T10:48:25.266Z,95642.69
2023-01-22T10:51:13.332Z,95639.88
2023-01-22T10:53:47.400Z,95631.91
2023-01-22T10:56:27.606Z,95630.59
2023-01-22T10:58:55.347Z,95625.41
2023-01-22T11:01:45.408Z,95632.84
2023-01-22T11:04:23.323Z,95628.28
2023-01-22T11:07:15.177Z,95623.81
2023-01-22T11:10:23.287Z,95628.03
2023-01-22T11:12:59.528Z,95628.03
2023-01-22T11:15:43.388Z,95628.66
2023-01-22T11:18:31.332Z,95630.53
2023-01-22T11:21:00.730Z,95628.56
2023-01-22T11:23:27.271Z,95629.84
2023-01-22T11:26:15.586Z,95631.38
2023-01-22T11:29:28.269Z,95634.25
2023-01-22T11:32:13.518Z,95637.16
2023-01-22T11:34:54.168Z,95632.22
2023-01-22T11:37:29.818Z,95638.25
2023-01-22T11:40:16.842Z,95627.97
2023-01-22T11:42:48.619Z,95635.13
2023-01-22T11:45:32.414Z,95624.66
2023-01-22T11:48:30.071Z,95623.63
2023-01-22T11:51:31.013Z,95629.09
2023-01-22T11:54:21.863Z,95629.97
2023-01-22T11:57:01.474Z,95635.84
2023-01-22T11:59:46.156Z,95634.47
2023-01-22T12:02:54.298Z,95630.75
2023-01-22T12:05:42.452Z,95629.50
2023-01-22T12:08:17.345Z,95628.53
2023-01-22T12:10:59.225Z,95628.78
2023-01-22T12:13:34.853Z,95622.69
2023-01-22T12:16:05.502Z,95623.13
2023-01-22T12:18:48.844Z,95617.84
2023-01-22T12:21:47.060Z,95620.69
2023-01-22T12:24:33.233Z,95618.28
2023-01-22T12:27:05.423Z,95628.22
2023-01-22T12:30:03.069Z,95619.09
2023-01-22T12:32:36.705Z,95619.34
2023-01-22T12:35:18.327Z,95622.81
2023-01-22T12:38:16.969Z,95624.31
2023-01-22T12:41:13.948Z,95625.47
2023-01-22T12:43:52.413Z,95629.25
2023-01-22T12:46:21.890Z,95623.59
2023-01-22T12:48:56.276Z,95624.72
2023-01-22T12:51:26.126Z,95625.31
2023-01-22T12:53:52.754Z,95625.16
2023-01-22T12:56:32.444Z,95621.41
2023-01-22T12:58:59.628Z,95620.59
2023-01-22T13:01:35.713Z,95624.69
2023-01-22T13:04:06.930Z,95632.03
2023-01-22T13:06:39.500Z,95630.03
2023-01-22T13:09:24.408Z,95626.69
2023-01-22T13:11:50.992Z,95625.22
2023-01-22T13:14:27.279Z,95627.22
2023-01-22T13:16:57.140Z,95633.69
2023-01-22T13:19:28.278Z,95630.88
2023-01-22T13:21:58.727Z,95628.22
2023-01-22T13:24:26.913Z,95631.72
2023-01-22T13:27:00.279Z,95638.34
2023-01-22T13:29:32.067Z,95642.00
2023-01-22T13:32:15.803Z,95646.34
2023-01-22T13:34:42.456Z,95644.78
2023-01-22T13:37:26.557Z,95646.13
2023-01-22T13:39:53.510Z,95643.50
2023-01-22T13:42:21.207Z,95646.75
2023-01-22T13:44:50.607Z,95645.59
2023-01-22T13:47:22.925Z,95643.28
2023-01-22T13:49:49.499Z,95656.75
2023-01-22T13:52:19.868Z,95648.41
2023-01-22T13:54:59.175Z,95657.28
2023-01-22T13:57:25.811Z,95665.53
2023-01-22T13:59:58.426Z,95665.16
2023-01-22T14:02:30.044Z,95669.31
2023-01-22T14:04:57.380Z,95668.50
2023-01-22T14:07:31.808Z,95668.03
2023-01-22T14:10:13.513Z,95669.47
2023-01-22T14:12:40.113Z,95677.63
2023-01-22T14:15:24.112Z,95683.41
2023-01-22T14:18:38.557Z,95680.63
2023-01-22T14:21:03.610Z,95685.56
2023-01-22T14:23:30.281Z,95686.41
2023-01-22T14:25:58.025Z,95690.63
2023-01-22T14:28:25.338Z,95686.53
2023-01-22T14:30:52.281Z,95684.59
2023-01-22T14:33:24.084Z,95683.44
2023-01-22T14:35:51.599Z,95685.19
2023-01-22T14:38:18.892Z,95694.69
2023-01-22T14:40:45.915Z,95691.47
2023-01-22T14:43:12.814Z,95687.53
2023-01-22T14:45:40.643Z,95692.66
2023-01-22T14:48:07.721Z,95692.94
2023-01-22T14:50:34.340Z,95687.72
2023-01-22T14:53:01.014Z,95695.75
2023-01-22T14:55:27.605Z,95700.41
2023-01-22T14:57:54.799Z,95702.81
2023-01-22T15:00:21.821Z,95706.44
2023-01-22T15:02:48.590Z,95709.25
2023-01-22T15:05:15.688Z,95712.66
2023-01-22T15:07:43.444Z,95714.50
2023-01-22T15:10:10.990Z,95713.03
2023-01-22T15:12:37.666Z,95717.84
2023-01-22T15:15:05.164Z,95715.34
2023-01-22T15:17:31.795Z,95722.66
2023-01-22T15:19:58.503Z,95720.13
2023-01-22T15:22:25.190Z,95720.22
2023-01-22T15:24:51.745Z,95727.75
2023-01-22T15:27:18.838Z,95724.25
2023-01-22T15:29:46.387Z,95727.09
2023-01-22T15:32:13.042Z,95724.56
2023-01-22T15:34:39.964Z,95724.34
2023-01-22T15:37:07.231Z,95727.09
2023-01-22T15:39:36.370Z,95729.56
2023-01-22T15:42:03.008Z,95732.03
2023-01-22T15:44:29.633Z,95734.31
2023-01-22T15:46:58.790Z,95731.63
2023-01-22T15:49:25.435Z,95733.41
2023-01-22T15:51:52.093Z,95731.44
2023-01-22T15:54:19.133Z,95731.69
2023-01-22T15:56:45.833Z,95731.94
2023-01-22T15:59:12.561Z,95737.75
2023-01-22T16:01:42.384Z,95737.44
2023-01-22T16:04:10.561Z,95732.78
2023-01-22T16:06:37.409Z,95735.97
2023-01-22T16:09:06.363Z,95736.31
2023-01-22T16:11:34.085Z,95732.63
2023-01-22T16:14:01.215Z,95743.25
2023-01-22T16:16:33.950Z,95746.91
2023-01-22T16:19:02.936Z,95741.22
2023-01-22T16:21:31.799Z,95747.91
2023-01-22T16:24:00.150Z,95747.03
2023-01-22T16:26:32.990Z,95755.78
2023-01-22T16:29:01.974Z,95751.50
2023-01-22T16:31:32.543Z,95758.25
2023-01-22T16:34:01.487Z,95757.25
2023-01-22T16:36:29.824Z,95762.22
2023-01-22T16:38:56.513Z,95762.38
2023-01-22T16:41:25.013Z,95760.25
2023-01-22T16:44:14.885Z,95764.75
2023-01-22T16:46:49.880Z,95770.28
2023-01-22T16:49:22.155Z,95772.41
2023-01-22T16:51:55.436Z,95765.19
2023-01-22T16:54:34.148Z,95778.16
2023-01-22T16:57:05.829Z,95771.53
2023-01-22T16:59:34.716Z,95774.66
2023-01-22T17:02:02.969Z,95774.28
2023-01-22T17:04:29.584Z,95771.31
2023-01-22T17:06:58.060Z,95776.88
2023-01-22T17:09:27.828Z,95772.84
2023-01-22T17:11:59.749Z,95780.44
2023-01-22T17:14:28.533Z,95775.28
2023-01-22T17:16:56.310Z,95775.84
2023-01-22T17:19:23.209Z,95775.72
2023-01-22T17:21:59.225Z,95782.84
2023-01-22T17:24:27.772Z,95778.84
2023-01-22T17:26:54.694Z,95779.81
2023-01-22T17:29:21.901Z,95783.81
2023-01-22T17:31:48.694Z,95788.31
2023-01-22T17:34:16.037Z,95791.56
2023-01-22T17:36:44.084Z,95793.13
2023-01-22T17:39:15.847Z,95793.22
2023-01-22T17:41:43.036Z,95794.09
2023-01-22T17:44:09.992Z,95793.91
2023-01-22T17:46:36.823Z,95794.09
2023-01-22T17:49:04.673Z,95798.22
2023-01-22T17:51:33.480Z,95803.75
2023-01-22T17:54:02.150Z,95802.06
2023-01-22T17:56:37.636Z,95802.78
2023-01-22T17:59:06.922Z,95809.72
2023-01-22T18:01:35.825Z,95812.22
2023-01-22T18:04:05.530Z,95808.22
2023-01-22T18:06:32.938Z,95807.69
2023-01-22T18:09:06.018Z,95812.00
2023-01-22T18:11:41.048Z,95809.38
2023-01-22T18:14:16.932Z,95813.66
2023-01-22T18:16:43.995Z,95812.25
2023-01-22T18:19:10.758Z,95812.50
2023-01-22T18:21:38.542Z,95815.13
2023-01-22T18:24:07.277Z,95822.13
2023-01-22T18:26:35.305Z,95822.06
2023-01-22T18:29:02.564Z,95820.38
2023-01-22T18:31:30.075Z,95820.41
2023-01-22T18:34:01.317Z,95823.22
2023-01-22T18:36:30.845Z,95828.56
2023-01-22T18:39:02.410Z,95826.22
2023-01-22T18:41:29.744Z,95828.06
2023-01-22T18:43:58.713Z,95827.69
2023-01-22T18:46:28.415Z,95832.28
2023-01-22T18:48:58.183Z,95829.25
2023-01-22T18:51:26.067Z,95833.69
2023-01-22T18:53:52.770Z,95841.63
2023-01-22T18:56:19.426Z,95842.63
2023-01-22T18:58:46.339Z,95838.59
2023-01-22T19:01:19.789Z,95840.19
2023-01-22T19:03:48.784Z,95841.09
2023-01-22T19:06:18.289Z,95845.44
2023-01-22T19:08:59.327Z,95846.59
2023-01-22T19:11:26.344Z,95849.44
2023-01-22T19:13:54.732Z,95854.66
2023-01-22T19:16:22.838Z,95851.59
2023-01-22T19:18:57.372Z,95846.66
2023-01-22T19:21:25.710Z,95856.69
2023-01-22T19:23:55.789Z,95859.16
2023-01-22T19:26:26.930Z,95861.94
2023-01-22T19:28:56.139Z,95854.63
2023-01-22T19:31:28.977Z,95857.47
2023-01-22T19:33:56.682Z,95862.03
2023-01-22T19:36:27.336Z,95868.81
2023-01-22T19:38:55.771Z,95878.81
2023-01-22T19:41:23.330Z,95881.06
2023-01-22T19:43:55.011Z,95885.72
2023-01-22T19:46:21.899Z,95882.09
2023-01-22T19:48:49.066Z,95883.81
2023-01-22T19:51:17.376Z,95894.56
2023-01-22T19:53:44.301Z,95905.34
2023-01-22T19:56:24.216Z,95907.69
2023-01-22T19:58:53.246Z,95914.88
2023-01-22T20:01:21.260Z,95905.84
2023-01-22T20:03:48.040Z,95914.16
2023-01-22T20:06:16.505Z,95909.66
2023-01-22T20:08:43.103Z,95908.72
2023-01-22T20:11:11.273Z,95903.59
2023-01-22T20:13:38.719Z,95901.44
2023-01-22T20:16:06.956Z,95909.69
2023-01-22T20:18:36.821Z,95910.25
2023-01-22T20:21:03.985Z,95909.91
2023-01-22T20:23:30.635Z,95907.06
2023-01-22T20:25:59.089Z,95912.75
2023-01-22T20:28:25.778Z,95909.25
2023-01-22T20:31:00.362Z,95920.94
2023-01-22T20:33:27.477Z,95920.75
2023-01-22T20:36:03.867Z,95925.94
2023-01-22T20:38:30.955Z,95922.63
2023-01-22T20:41:02.457Z,95918.63
2023-01-22T20:43:30.344Z,95920.53
2023-01-22T20:46:14.712Z,95914.19
2023-01-22T20:48:41.547Z,95919.53
2023-01-22T20:51:17.006Z,95914.72
2023-01-22T20:53:45.723Z,95922.56
2023-01-22T20:56:22.520Z,95921.81
2023-01-22T20:58:55.396Z,95916.66
2023-01-22T21:01:22.010Z,95917.50
2023-01-22T21:03:48.868Z,95914.41
2023-01-22T21:06:18.161Z,95917.75
2023-01-22T21:08:51.769Z,95916.91
2023-01-22T21:11:20.581Z,95913.78
2023-01-22T21:13:48.334Z,95912.13
2023-01-22T21:16:29.507Z,95918.03
2023-01-22T21:19:08.608Z,95914.75
2023-01-22T21:21:35.967Z,95913.72
2023-01-22T21:24:02.885Z,95919.72
2023-01-22T21:26:34.278Z,95921.44
2023-01-22T21:29:08.474Z,95925.78
2023-01-22T21:31:36.999Z,95930.03
2023-01-22T21:34:05.972Z,95932.47
2023-01-22T21:36:41.318Z,95939.03
2023-01-22T21:39:12.816Z,95948.16
2023-01-22T21:41:40.941Z,95943.03
2023-01-22T21:44:26.560Z,95948.81
2023-01-22T21:46:53.198Z,95941.50
2023-01-22T21:49:24.386Z,95931.94
2023-01-22T21:51:58.311Z,95939.75
2023-01-22T21:54:39.432Z,95947.47
2023-01-22T21:57:06.840Z,95946.13
2023-01-22T21:59:35.423Z,95947.38
2023-01-22T22:02:02.239Z,95945.97
2023-01-22T22:04:28.892Z,95951.00
2023-01-22T22:06:55.934Z,95948.22
2023-01-22T22:09:25.608Z,95950.22
2023-01-22T22:11:56.654Z,95939.47
2023-01-22T22:14:24.368Z,95941.09
2023-01-22T22:16:51.549Z,95943.47
2023-01-22T22:19:19.920Z,95942.66
2023-01-22T22:21:46.658Z,95947.66
2023-01-22T22:24:16.861Z,95949.50
2023-01-22T22:26:43.453Z,95948.81
2023-01-22T22:29:10.530Z,95944.81
2023-01-22T22:31:39.982Z,95950.81
2023-01-22T22:34:06.917Z,95941.66
2023-01-22T22:36:35.322Z,95943.50
2023-01-22T22:39:02.096Z,95934.41
2023-01-22T22:41:33.203Z,95935.47
2023-01-22T22:44:00.242Z,95935.66
2023-01-22T22:46:32.290Z,95934.88
2023-01-22T22:49:00.966Z,95935.91
2023-01-22T22:51:36.800Z,95928.59
2023-01-22T22:54:07.796Z,95929.63
2023-01-22T22:56:36.986Z,95933.94
2023-01-22T22:59:04.099Z,95934.81
2023-01-22T23:01:35.480Z,95938.97
2023-01-22T23:04:02.362Z,95940.69
2023-01-22T23:06:31.646Z,95941.53
2023-01-22T23:09:13.047Z,95947.41
2023-01-22T23:11:40.115Z,95944.94
2023-01-22T23:14:06.812Z,95950.84
2023-01-22T23:16:36.781Z,95948.38
2023-01-22T23:19:12.363Z,95953.38
2023-01-22T23:21:41.627Z,95950.03
2023-01-22T23:24:13.825Z,95952.59
2023-01-22T23:26:42.543Z,95953.47
2023-01-22T23:29:14.379Z,95962.72
2023-01-22T23:31:41.121Z,95955.25
2023-01-22T23:34:17.099Z,95964.41
2023-01-22T23:36:45.446Z,95959.22
2023-01-22T23:39:15.194Z,95951.41
2023-01-22T23:41:45.025Z,95955.47
2023-01-22T23:44:11.902Z,95948.50
2023-01-22T23:46:38.854Z,95945.81
2023-01-22T23:49:08.116Z,95956.00
2023-01-22T23:51:34.731Z,95965.19
2023-01-22T23:54:01.326Z,95970.16
2023-01-22T23:56:31.823Z,95974.28
2023-01-22T23:58:59.719Z,95972.50
